createdAt,value
2019-03-11T00:01:31.673Z,94662.10
2019-03-11T00:03:58.047Z,94665.72
2019-03-11T00:06:24.377Z,94667.23
2019-03-11T00:08:50.768Z,94665.72
2019-03-11T00:11:17.166Z,94670.86
2019-03-11T00:13:43.458Z,94662.80
2019-03-11T00:16:09.900Z,94664.21
2019-03-11T00:18:36.237Z,94661.88
2019-03-11T00:21:02.814Z,94657.33
2019-03-11T00:23:29.138Z,94658.61
2019-03-11T00:25:55.483Z,94664.80
2019-03-11T00:28:21.882Z,94667.37
2019-03-11T00:30:48.190Z,94664.44
2019-03-11T00:33:14.689Z,94669.58
2019-03-11T00:35:43.479Z,94663.16
2019-03-11T00:38:09.807Z,94660.23
2019-03-11T00:40:36.149Z,94655.69
2019-03-11T00:43:05.630Z,94654.77
2019-03-11T00:45:31.982Z,94651.73
2019-03-11T00:48:02.448Z,94646.10
2019-03-11T00:50:24.736Z,94642.74
2019-03-11T00:52:51.104Z,94640.64
2019-03-11T00:55:17.423Z,94644.95
2019-03-11T00:57:43.809Z,94645.18
2019-03-11T01:00:10.202Z,94645.64
2019-03-11T01:02:39.013Z,94651.37
2019-03-11T01:05:05.356Z,94651.50
2019-03-11T01:07:31.714Z,94648.91
2019-03-11T01:09:58.046Z,94654.86
2019-03-11T01:12:24.441Z,94655.98
2019-03-11T01:14:50.787Z,94654.70
2019-03-11T01:17:17.125Z,94661.94
2019-03-11T01:19:43.477Z,94662.34
2019-03-11T01:22:09.877Z,94660.13
2019-03-11T01:24:36.297Z,94653.80
2019-03-11T01:27:02.638Z,94643.30
2019-03-11T01:29:28.975Z,94651.27
2019-03-11T01:31:55.359Z,94654.55
2019-03-11T01:34:21.689Z,94664.81
2019-03-11T01:36:48.076Z,94670.90
2019-03-11T01:39:14.452Z,94666.91
2019-03-11T01:41:40.802Z,94667.14
2019-03-11T01:44:07.124Z,94661.20
2019-03-11T01:46:33.463Z,94663.77
2019-03-11T01:48:59.875Z,94658.17
2019-03-11T01:51:26.279Z,94660.50
2019-03-11T01:53:52.691Z,94656.52
2019-03-11T01:56:19.036Z,94659.30
2019-03-11T01:58:45.370Z,94652.42
2019-03-11T02:01:11.710Z,94647.74
2019-03-11T02:03:38.068Z,94650.31
2019-03-11T02:06:04.470Z,94648.10
2019-03-11T02:08:30.754Z,94656.17
2019-03-11T02:10:57.105Z,94655.93
2019-03-11T02:13:23.474Z,94655.45
2019-03-11T02:15:49.791Z,94663.98
2019-03-11T02:18:16.179Z,94652.52
2019-03-11T02:20:42.494Z,94653.70
2019-03-11T02:23:08.834Z,94656.62
2019-03-11T02:25:35.216Z,94655.09
2019-03-11T02:28:01.751Z,94660.34
2019-03-11T02:30:28.106Z,94659.41
2019-03-11T02:32:54.476Z,94671.00
2019-03-11T02:35:20.883Z,94661.17
2019-03-11T02:37:47.201Z,94658.27
2019-03-11T02:40:13.565Z,94660.47
2019-03-11T02:42:39.995Z,94671.01
2019-03-11T02:45:06.377Z,94658.16
2019-03-11T02:47:32.737Z,94662.47
2019-03-11T02:49:59.112Z,94656.13
2019-03-11T02:52:25.460Z,94659.28
2019-03-11T02:54:51.858Z,94671.67
2019-03-11T02:57:18.123Z,94666.89
2019-03-11T02:59:44.458Z,94670.75
2019-03-11T03:02:10.826Z,94681.16
2019-03-11T03:04:37.152Z,94690.61
2019-03-11T03:07:03.511Z,94685.34
2019-03-11T03:09:31.780Z,94685.70
2019-03-11T03:11:56.378Z,94683.34
2019-03-11T03:14:22.697Z,94683.48
2019-03-11T03:16:49.023Z,94689.77
2019-03-11T03:19:15.374Z,94686.27
2019-03-11T03:21:41.728Z,94691.28
2019-03-11T03:24:08.041Z,94699.72
2019-03-11T03:26:34.478Z,94697.83
2019-03-11T03:29:00.900Z,94702.05
2019-03-11T03:31:27.244Z,94713.16
2019-03-11T03:33:53.565Z,94704.62
2019-03-11T03:36:19.905Z,94710.58
2019-03-11T03:38:46.322Z,94715.12
2019-03-11T03:41:12.611Z,94718.05
2019-03-11T03:43:39.031Z,94714.06
2019-03-11T03:46:17.849Z,94709.88
2019-03-11T03:48:31.850Z,94715.82
2019-03-11T03:50:58.201Z,94715.80
2019-03-11T03:53:24.541Z,94724.20
2019-03-11T03:55:50.877Z,94725.14
2019-03-11T03:58:17.240Z,94719.64
2019-03-11T04:00:43.613Z,94720.93
2019-03-11T04:03:10.024Z,94719.39
2019-03-11T04:05:36.348Z,94733.16
2019-03-11T04:08:02.818Z,94734.45
2019-03-11T04:10:32.242Z,94737.24
2019-03-11T04:12:55.485Z,94733.17
2019-03-11T04:15:21.822Z,94738.77
2019-03-11T04:17:48.158Z,94738.05
2019-03-11T04:20:14.491Z,94745.20
2019-03-11T04:22:40.864Z,94748.09
2019-03-11T04:25:07.223Z,94745.88
2019-03-11T04:27:33.574Z,94745.98
2019-03-11T04:29:59.904Z,94747.36
2019-03-11T04:32:26.270Z,94743.02
2019-03-11T04:34:52.788Z,94737.30
2019-03-11T04:37:19.118Z,94743.13
2019-03-11T04:39:45.448Z,94748.03
2019-03-11T04:42:11.798Z,94751.30
2019-03-11T04:44:38.143Z,94748.50
2019-03-11T04:47:04.532Z,94752.12
2019-03-11T04:49:30.910Z,94757.27
2019-03-11T04:51:57.364Z,94755.73
2019-03-11T04:54:23.645Z,94757.70
2019-03-11T04:56:49.983Z,94756.30
2019-03-11T04:59:16.374Z,94759.66
2019-03-11T05:01:42.720Z,94761.41
2019-03-11T05:04:09.045Z,94761.16
2019-03-11T05:06:35.423Z,94761.84
2019-03-11T05:09:01.738Z,94757.16
2019-03-11T05:11:28.252Z,94758.52
2019-03-11T05:13:54.477Z,94763.91
2019-03-11T05:16:20.911Z,94761.44
2019-03-11T05:18:47.244Z,94758.26
2019-03-11T05:21:13.663Z,94757.67
2019-03-11T05:23:40.056Z,94751.12
2019-03-11T05:26:06.349Z,94751.12
2019-03-11T05:28:32.673Z,94745.56
2019-03-11T05:30:59.152Z,94751.54
2019-03-11T05:33:25.491Z,94746.53
2019-03-11T05:35:51.979Z,94748.70
2019-03-11T05:38:18.312Z,94744.94
2019-03-11T05:40:44.664Z,94749.02
2019-03-11T05:43:10.964Z,94748.29
2019-03-11T05:45:37.345Z,94750.41
2019-03-11T05:48:03.769Z,94752.88
2019-03-11T05:50:30.096Z,94748.64
2019-03-11T05:52:56.434Z,94747.69
2019-03-11T05:55:22.790Z,94749.42
2019-03-11T05:57:49.112Z,94745.77
2019-03-11T06:00:15.489Z,94742.16
2019-03-11T06:02:41.821Z,94740.14
2019-03-11T06:05:08.183Z,94745.50
2019-03-11T06:07:34.535Z,94746.06
2019-03-11T06:10:00.898Z,94744.17
2019-03-11T06:12:27.203Z,94751.73
2019-03-11T06:14:53.587Z,94752.09
2019-03-11T06:17:19.938Z,94758.02
2019-03-11T06:19:46.248Z,94757.75
2019-03-11T06:22:12.550Z,94766.05
2019-03-11T06:24:38.882Z,94771.27
2019-03-11T06:27:05.228Z,94774.03
2019-03-11T06:29:31.572Z,94775.33
2019-03-11T06:31:57.882Z,94768.36
2019-03-11T06:34:24.212Z,94767.38
2019-03-11T06:36:50.564Z,94764.09
2019-03-11T06:39:16.914Z,94761.25
2019-03-11T06:41:43.302Z,94761.88
2019-03-11T06:44:09.654Z,94763.88
2019-03-11T06:46:36.003Z,94760.23
2019-03-11T06:49:02.334Z,94754.33
2019-03-11T06:51:28.716Z,94755.28
2019-03-11T06:53:55.816Z,94758.53
2019-03-11T06:56:22.191Z,94749.30
2019-03-11T06:58:48.552Z,94748.39
2019-03-11T07:01:14.888Z,94740.22
2019-03-11T07:03:41.223Z,94735.75
2019-03-11T07:06:07.575Z,94736.61
2019-03-11T07:08:33.932Z,94732.63
2019-03-11T07:11:00.283Z,94730.39
2019-03-11T07:13:26.647Z,94719.27
2019-03-11T07:15:53.061Z,94726.98
2019-03-11T07:18:19.467Z,94724.25
2019-03-11T07:20:45.800Z,94720.84
2019-03-11T07:23:12.182Z,94714.80
2019-03-11T07:25:38.517Z,94705.47
2019-03-11T07:28:04.916Z,94704.47
2019-03-11T07:30:31.292Z,94711.20
2019-03-11T07:32:57.635Z,94708.45
2019-03-11T07:35:24.012Z,94705.29
2019-03-11T07:37:50.418Z,94706.58
2019-03-11T07:40:28.454Z,94705.75
2019-03-11T07:42:43.113Z,94702.63
2019-03-11T07:45:09.478Z,94692.64
2019-03-11T07:47:38.365Z,94689.44
2019-03-11T07:50:04.765Z,94682.23
2019-03-11T07:52:31.652Z,94696.09
2019-03-11T07:54:58.034Z,94691.38
2019-03-11T07:57:24.415Z,94694.20
2019-03-11T07:59:51.006Z,94681.29
2019-03-11T08:02:18.396Z,94686.02
2019-03-11T08:04:44.257Z,94684.83
2019-03-11T08:07:10.701Z,94681.69
2019-03-11T08:09:38.361Z,94679.65
2019-03-11T08:12:03.492Z,94671.55
2019-03-11T08:14:29.851Z,94674.67
2019-03-11T08:16:56.218Z,94678.20
2019-03-11T08:19:22.653Z,94677.62
2019-03-11T08:21:49.043Z,94679.11
2019-03-11T08:24:16.672Z,94681.14
2019-03-11T08:26:41.845Z,94674.83
2019-03-11T08:29:08.197Z,94675.34
2019-03-11T08:31:34.616Z,94660.34
2019-03-11T08:34:00.984Z,94656.94
2019-03-11T08:36:27.453Z,94657.76
2019-03-11T08:38:53.841Z,94651.42
2019-03-11T08:41:20.219Z,94645.63
2019-03-11T08:43:46.568Z,94638.44
2019-03-11T08:46:15.397Z,94637.02
2019-03-11T08:48:41.748Z,94628.80
2019-03-11T08:51:08.283Z,94622.14
2019-03-11T08:53:34.627Z,94612.95
2019-03-11T08:56:01.110Z,94608.06
2019-03-11T08:58:27.384Z,94605.92
2019-03-11T09:00:53.801Z,94602.23
2019-03-11T09:03:20.603Z,94599.11
2019-03-11T09:05:46.512Z,94599.68
2019-03-11T09:08:12.870Z,94593.69
2019-03-11T09:10:39.241Z,94582.80
2019-03-11T09:13:05.611Z,94580.42
2019-03-11T09:15:32.683Z,94568.67
2019-03-11T09:17:58.520Z,94566.09
2019-03-11T09:20:24.915Z,94558.06
2019-03-11T09:22:51.424Z,94552.01
2019-03-11T09:25:17.756Z,94557.45
2019-03-11T09:27:44.220Z,94553.11
2019-03-11T09:30:10.579Z,94555.53
2019-03-11T09:32:37.018Z,94556.92
2019-03-11T09:35:03.341Z,94548.60
2019-03-11T09:37:29.942Z,94548.89
2019-03-11T09:39:56.343Z,94551.47
2019-03-11T09:42:22.735Z,94542.08
2019-03-11T09:44:49.141Z,94540.19
2019-03-11T09:47:15.477Z,94533.83
2019-03-11T09:49:41.843Z,94539.88
2019-03-11T09:52:08.235Z,94539.75
2019-03-11T09:54:34.614Z,94527.91
2019-03-11T09:57:01.267Z,94527.03
2019-03-11T09:59:27.881Z,94522.52
2019-03-11T10:01:54.279Z,94526.48
2019-03-11T10:04:20.644Z,94518.08
2019-03-11T10:06:47.184Z,94528.53
2019-03-11T10:09:13.568Z,94523.34
2019-03-11T10:11:39.916Z,94518.58
2019-03-11T10:14:06.267Z,94519.63
2019-03-11T10:16:32.624Z,94511.00
2019-03-11T10:18:59.035Z,94512.91
2019-03-11T10:21:25.539Z,94516.91
2019-03-11T10:23:51.861Z,94511.28
2019-03-11T10:26:18.434Z,94508.70
2019-03-11T10:28:44.844Z,94506.30
2019-03-11T10:31:11.194Z,94502.23
2019-03-11T10:33:37.745Z,94502.36
2019-03-11T10:36:04.159Z,94505.64
2019-03-11T10:38:30.932Z,94500.48
2019-03-11T10:40:57.362Z,94496.92
2019-03-11T10:43:23.705Z,94499.50
2019-03-11T10:45:50.056Z,94492.86
2019-03-11T10:48:16.471Z,94496.17
2019-03-11T10:50:42.847Z,94492.89
2019-03-11T10:53:09.149Z,94495.69
2019-03-11T10:55:35.502Z,94500.92
2019-03-11T10:58:01.865Z,94494.59
2019-03-11T11:00:28.263Z,94493.36
2019-03-11T11:02:54.753Z,94501.30
2019-03-11T11:05:21.101Z,94499.54
2019-03-11T11:07:47.457Z,94493.55
2019-03-11T11:10:13.814Z,94495.41
2019-03-11T11:12:40.183Z,94483.91
2019-03-11T11:15:06.573Z,94482.50
2019-03-11T11:17:32.907Z,94480.92
2019-03-11T11:20:03.089Z,94478.02
2019-03-11T11:22:25.704Z,94475.44
2019-03-11T11:24:52.075Z,94472.52
2019-03-11T11:27:18.530Z,94461.90
2019-03-11T11:29:44.929Z,94458.37
2019-03-11T11:32:11.307Z,94452.67
2019-03-11T11:34:37.763Z,94452.57
2019-03-11T11:37:04.053Z,94450.94
2019-03-11T11:39:30.387Z,94444.34
2019-03-11T11:41:56.743Z,94436.31
2019-03-11T11:44:23.083Z,94434.49
2019-03-11T11:46:49.484Z,94441.19
2019-03-11T11:49:15.817Z,94437.19
2019-03-11T11:51:42.233Z,94428.14
2019-03-11T11:54:08.577Z,94429.09
2019-03-11T11:56:34.907Z,94409.27
2019-03-11T11:59:01.339Z,94404.90
2019-03-11T12:01:27.784Z,94397.64
2019-03-11T12:03:54.122Z,94390.11
2019-03-11T12:06:20.514Z,94387.89
2019-03-11T12:08:46.873Z,94380.38
2019-03-11T12:11:13.297Z,94379.72
2019-03-11T12:13:39.855Z,94371.81
2019-03-11T12:16:06.222Z,94354.89
2019-03-11T12:18:33.646Z,94359.23
2019-03-11T12:21:00.189Z,94357.58
2019-03-11T12:23:26.587Z,94343.27
2019-03-11T12:25:52.914Z,94344.33
2019-03-11T12:28:19.278Z,94341.27
2019-03-11T12:30:45.675Z,94346.56
2019-03-11T12:33:12.350Z,94335.42
2019-03-11T12:35:38.877Z,94330.17
2019-03-11T12:38:05.456Z,94328.02
2019-03-11T12:40:31.819Z,94325.25
2019-03-11T12:42:58.295Z,94321.72
2019-03-11T12:45:24.652Z,94321.72
2019-03-11T12:47:51.025Z,94314.14
2019-03-11T12:50:17.373Z,94313.80
2019-03-11T12:52:43.742Z,94317.08
2019-03-11T12:55:10.747Z,94309.80
2019-03-11T12:57:37.155Z,94299.78
2019-03-11T13:00:03.570Z,94304.34
2019-03-11T13:02:29.920Z,94298.99
2019-03-11T13:04:56.321Z,94300.23
2019-03-11T13:07:22.679Z,94297.72
2019-03-11T13:09:49.023Z,94289.91
2019-03-11T13:12:15.368Z,94290.85
2019-03-11T13:14:41.737Z,94287.32
2019-03-11T13:17:08.243Z,94280.05
2019-03-11T13:19:34.612Z,94273.77
2019-03-11T13:22:01.001Z,94272.25
2019-03-11T13:24:30.300Z,94277.94
2019-03-11T13:26:56.664Z,94267.13
2019-03-11T13:29:23.082Z,94270.84
2019-03-11T13:31:49.492Z,94265.07
2019-03-11T13:34:15.808Z,94260.73
2019-03-11T13:36:42.476Z,94258.75
2019-03-11T13:39:08.873Z,94257.67
